• Join FlightAware (Why Join?)
  • Login
  • US Flag 
05:57AM EST


 

Airport Tracker/Info


-or-


 

Live Flight TrackerFlight Track Log ✈ TAM3752 ✈ 08-Sep-2013 ✈ SBRJ / SDU - SBCF / CNF

Flight Track Log - Related Links

Times and Time Zones

All times are in EDT time to prevent confusion due to time zone crossing. See the TAM3752 flight status page for this flight to view local times or setup timezone preferences in your user account.

Time Position Orientation Groundspeed Altitude Reporting Facility
EDT Latitude Longitude Course Direction KTS MPH feet Rate Location/Type
07:02PM -22.9310 -43.1540 137° Southeast 147 169 1,100  Level FlightAware
07:03PM -22.9390 -43.1420 126° Southeast 152 175 2,000 2,040 Climbing FlightAware
07:03PM -22.9480 -43.1320 134° Southeast 177 204 2,400 1,320 Climbing FlightAware
07:03PM -22.9520 -43.1300 155° Southeast 183 211 2,500 1,500 Climbing FlightAware
07:03PM -22.9580 -43.1280 163° South 191 220 2,700 1,740 Climbing FlightAware
07:03PM -22.9730 -43.1240 166° South 212 244 3,200 1,800 Climbing FlightAware
07:03PM -22.9760 -43.1220 148° Southeast 218 251 3,300 1,500 Climbing FlightAware
07:04PM -22.9810 -43.1150 128° Southeast 226 260 3,500 1,860 Climbing FlightAware
07:04PM -22.9840 -43.1060 110° East 236 272 3,800 1,860 Climbing FlightAware
07:04PM -22.9840 -43.0960 90° East 246 283 4,100 2,220 Climbing FlightAware
07:04PM -22.9810 -43.0660 84° East 274 315 5,000 2,640 Climbing FlightAware
07:04PM -22.9770 -43.0560 67° East 275 316 5,400 3,000 Climbing FlightAware
07:04PM -22.9710 -43.0480 51° Northeast 278 320 5,800 3,000 Climbing FlightAware
07:05PM -22.9610 -43.0410 33° Northeast 280 322 6,200 3,000 Climbing FlightAware
07:05PM -22.9490 -43.0370 17° North 283 326 6,700 3,300 Climbing FlightAware
07:05PM -22.9110 -43.0480 345° North 285 328 8,400 3,300 Climbing FlightAware
07:06PM -22.8820 -43.0570 344° North 291 335 9,600 2,460 Climbing FlightAware
07:06PM -22.8330 -43.0710 345° North 321 369 10,800 1,800 Climbing FlightAware
07:07PM -22.7840 -43.0870 343° North 355 409 11,700 2,280 Climbing FlightAware
07:07PM -22.7280 -43.1050 343° North 363 418 13,400 2,640 Climbing FlightAware
07:08PM -22.6670 -43.1240 344° North 377 434 14,900 2,460 Climbing FlightAware
07:09PM -22.6100 -43.1440 342° North 388 447 16,300 2,460 Climbing FlightAware
07:09PM -22.5500 -43.1650 342° North 394 453 17,700 2,460 Climbing FlightAware
07:10PM -22.4840 -43.1880 342° North 398 458 19,300 2,460 Climbing FlightAware
07:10PM -22.4270 -43.2070 343° North 404 465 20,600 1,980 Climbing FlightAware
07:11PM -22.3660 -43.2280 342° North 416 479 21,600 2,040 Climbing FlightAware
07:11PM -22.2960 -43.2520 342° North 417 480 23,100 2,220 Climbing FlightAware
07:12PM -22.2270 -43.2750 343° North 424 488 24,300 2,220 Climbing FlightAware
07:13PM -22.1630 -43.2970 342° North 419 482 25,700 1,740 Climbing FlightAware
07:13PM -22.1150 -43.3130 343° North 429 494 26,300 2,160 Climbing FlightAware
07:14PM -22.0490 -43.3360 342° North 415 478 28,100 2,400 Climbing FlightAware
07:14PM -21.9920 -43.3550 343° North 410 472 29,000 720 Climbing FlightAware
07:15PM -21.9180 -43.3800 343° North 405 466 29,000  Level FlightAware
07:16PM -21.8450 -43.4050 342° North 407 468 29,000  Level FlightAware
07:16PM -21.7830 -43.4250 343° North 409 471 29,000  Level FlightAware
07:17PM -21.7160 -43.4480 342° North 412 474 29,000 60 Level FlightAware
07:17PM -21.6610 -43.4670 342° North 411 473 29,100 60 Climbing FlightAware
07:18PM -21.5850 -43.4930 342° North 410 472 29,100 -120 Level FlightAware
07:19PM -21.5250 -43.5130 343° North 408 470 29,000 -120 Descending FlightAware
07:19PM -21.4670 -43.5330 342° North 408 470 29,000  Level FlightAware
07:20PM -21.4010 -43.5540 343° North 407 468 29,000  Level FlightAware
07:20PM -21.3330 -43.5770 343° North 406 467 29,000  Level FlightAware
07:21PM -21.2610 -43.6010 343° North 404 465 29,000  Level FlightAware
07:22PM -21.1950 -43.6230 343° North 403 464 29,000  Level FlightAware
07:22PM -21.1370 -43.6430 342° North 401 461 29,000  Level FlightAware
07:23PM -21.0810 -43.6620 342° North 400 460 29,000  Level FlightAware
07:23PM -21.0140 -43.6840 343° North 398 458 29,000  Level FlightAware
07:24PM -20.9490 -43.7060 342° North 397 457 29,000 -300 Level FlightAware
07:24PM -20.8920 -43.7250 343° North 395 455 28,700 -780 Descending FlightAware
07:25PM -20.8350 -43.7440 343° North 393 452 28,200 -1,080 Descending FlightAware
07:26PM -20.7540 -43.7710 343° North 398 458 27,400 -1,140 Descending FlightAware
07:26PM -20.7210 -43.7770 350° North 407 468 27,100 -960 Descending FlightAware
07:26PM -20.6870 -43.7750 North 411 473 26,800 -1,020 Descending FlightAware
07:27PM -20.6210 -43.7690 North 406 467 26,200 -1,020 Descending FlightAware
07:28PM -20.5440 -43.7630 North 402 463 25,600 -1,020 Descending FlightAware
07:28PM -20.4840 -43.7590 North 404 465 25,000 -1,080 Descending FlightAware
07:29PM -20.4120 -43.7530 North 407 468 24,400 -1,080 Descending FlightAware
07:29PM -20.3520 -43.7490 North 403 464 23,800 -1,020 Descending FlightAware
07:30PM -20.2880 -43.7440 North 394 453 23,300 -960 Descending FlightAware
07:31PM -20.2200 -43.7380 North 388 447 22,700 -1,080 Descending FlightAware
07:31PM -20.1640 -43.7340 North 383 441 22,100 -2,100 Descending FlightAware
07:32PM -20.0990 -43.7290 North 395 455 20,400 -2,640 Descending FlightAware
07:32PM -20.0330 -43.7230 North 388 447 19,000 -2,220 Descending FlightAware
07:33PM -19.9690 -43.7180 North 377 434 17,800 -2,280 Descending FlightAware
07:34PM -19.8930 -43.7190 359° North 376 433 15,900 -2,280 Descending FlightAware
07:34PM -19.8320 -43.7390 343° North 372 428 14,700 -1,920 Descending FlightAware
07:35PM -19.7740 -43.7560 345° North 361 415 13,700 -2,100 Descending FlightAware
07:35PM -19.7460 -43.7670 340° North 363 418 12,800 -2,280 Descending FlightAware
07:36PM -19.6910 -43.7960 334° Northwest 357 411 11,600 -1,920 Descending FlightAware
07:36PM -19.6400 -43.8220 334° Northwest 346 398 10,600 -1,320 Descending FlightAware
07:37PM -19.5900 -43.8480 334° Northwest 323 372 10,100 -900 Descending FlightAware
07:37PM -19.5570 -43.8640 335° Northwest 305 351 9,700 -1,080 Descending FlightAware
07:38PM -19.5320 -43.8770 334° Northwest 299 344 9,300 -1,380 Descending FlightAware
07:38PM -19.5130 -43.8860 336° Northwest 297 342 8,900 -1,500 Descending FlightAware
07:38PM -19.4920 -43.8980 332° Northwest 293 337 8,400 -1,680 Descending FlightAware
07:38PM -19.4850 -43.9050 317° Northwest 292 336 8,200 -2,700 Descending FlightAware
07:38PM -19.4810 -43.9090 317° Northwest 291 335 8,000 -1,140 Descending FlightAware
07:39PM -19.4750 -43.9220 296° West 283 326 7,900 -720 Descending FlightAware
07:39PM -19.4680 -43.9410 291° West 275 316 7,700 -1,260 Descending FlightAware
07:39PM -19.4560 -43.9730 292° West 272 313 7,100 -1,380 Descending FlightAware
07:40PM -19.4470 -43.9970 292° West 269 310 6,700 -1,080 Descending FlightAware
07:40PM -19.4330 -44.0330 292° West 256 295 6,200 -1,080 Descending FlightAware
07:40PM -19.4330 -44.0390 270° West 257 296 6,100 -1,200 Descending FlightAware
07:41PM -19.4480 -44.0650 239° Southwest 249 287 5,600 -1,020 Descending FlightAware
07:41PM -19.4520 -44.0680 215° Southwest 245 282 5,600 -600 Level FlightAware
07:41PM -19.4670 -44.0760 207° Southwest 235 270 5,400 -720 Descending FlightAware
07:41PM -19.4840 -44.0860 209° Southwest 220 253 5,200 -540 Descending FlightAware
07:41PM -19.4910 -44.0870 188° South 210 242 5,200 -420 Level FlightAware
07:42PM -19.5110 -44.0800 162° South 176 203 5,000 -480 Descending FlightAware
07:42PM -19.5210 -44.0730 147° Southeast 161 185 4,900 -540 Descending FlightAware
07:42PM -19.5310 -44.0630 137° Southeast 152 175 4,700 -660 Descending FlightAware
07:42PM -19.5370 -44.0580 142° Southeast 148 170 4,600 -720 Descending FlightAware
07:43PM -19.5500 -44.0460 139° Southeast 146 168 4,300 -840 Descending FlightAware
07:43PM -19.5590 -44.0380 140° Southeast 142 163 4,000 -780 Descending FlightAware
07:44PM -19.5700 -44.0280 139° Southeast 141 162 3,800 -660 Descending FlightAware
07:44PM -19.5780 -44.0200 137° Southeast 136 157 3,600 -720 Descending FlightAware
07:44PM -19.5930 -44.0060 139° Southeast 132 152 3,200 -720 Descending FlightAware
07:45PM -19.6020 -43.9980 140° Southeast 131 151 3,000 -720 Descending FlightAware
07:45PM -19.6130 -43.9880 139° Southeast 130 150 2,700 -540 Descending FlightAware
07:45PM -19.6190 -43.9820 137° Southeast 131 151 2,600 -300 Descending FlightAware